sensor_id;sensor_type;location;lat;lon;timestamp;P1;durP1;ratioP1;P2;durP2;ratioP2
9950;SDS011;24074;49.254;6.702;2023-11-22T00:00:01;8.30;;;5.43;;
9950;SDS011;24074;49.254;6.702;2023-11-22T00:02:28;8.57;;;5.43;;
9950;SDS011;24074;49.254;6.702;2023-11-22T00:04:54;7.03;;;5.20;;
9950;SDS011;24074;49.254;6.702;2023-11-22T00:07:20;7.43;;;5.17;;
9950;SDS011;24074;49.254;6.702;2023-11-22T00:09:46;8.17;;;5.70;;
9950;SDS011;24074;49.254;6.702;2023-11-22T00:12:12;9.80;;;5.43;;
9950;SDS011;24074;49.254;6.702;2023-11-22T00:14:38;8.10;;;4.67;;
9950;SDS011;24074;49.254;6.702;2023-11-22T00:17:04;3.00;;;2.60;;
9950;SDS011;24074;49.254;6.702;2023-11-22T00:19:30;5.10;;;2.97;;
9950;SDS011;24074;49.254;6.702;2023-11-22T00:21:56;3.47;;;2.33;;
9950;SDS011;24074;49.254;6.702;2023-11-22T00:24:21;3.17;;;2.00;;
9950;SDS011;24074;49.254;6.702;2023-11-22T00:26:47;3.23;;;1.60;;
9950;SDS011;24074;49.254;6.702;2023-11-22T00:29:12;1.70;;;1.60;;
9950;SDS011;24074;49.254;6.702;2023-11-22T00:31:38;3.70;;;1.80;;
9950;SDS011;24074;49.254;6.702;2023-11-22T00:34:05;2.07;;;1.80;;
9950;SDS011;24074;49.254;6.702;2023-11-22T00:36:31;1.90;;;1.60;;
9950;SDS011;24074;49.254;6.702;2023-11-22T00:38:57;2.10;;;1.90;;
9950;SDS011;24074;49.254;6.702;2023-11-22T00:41:22;4.27;;;2.37;;
9950;SDS011;24074;49.254;6.702;2023-11-22T00:43:48;2.57;;;1.90;;
9950;SDS011;24074;49.254;6.702;2023-11-22T00:46:13;2.30;;;2.10;;
9950;SDS011;24074;49.254;6.702;2023-11-22T00:48:39;2.80;;;2.00;;
9950;SDS011;24074;49.254;6.702;2023-11-22T00:51:05;2.57;;;2.37;;
9950;SDS011;24074;49.254;6.702;2023-11-22T00:53:34;2.83;;;2.23;;
9950;SDS011;24074;49.254;6.702;2023-11-22T00:56:01;2.90;;;2.50;;
9950;SDS011;24074;49.254;6.702;2023-11-22T00:58:27;2.63;;;2.43;;
9950;SDS011;24074;49.254;6.702;2023-11-22T01:00:52;2.63;;;2.43;;
9950;SDS011;24074;49.254;6.702;2023-11-22T01:03:18;2.60;;;2.40;;
9950;SDS011;24074;49.254;6.702;2023-11-22T01:05:44;2.93;;;2.37;;
9950;SDS011;24074;49.254;6.702;2023-11-22T01:08:11;3.40;;;3.10;;
9950;SDS011;24074;49.254;6.702;2023-11-22T01:10:38;3.07;;;2.50;;
9950;SDS011;24074;49.254;6.702;2023-11-22T01:13:04;3.30;;;3.00;;
9950;SDS011;24074;49.254;6.702;2023-11-22T01:15:30;3.83;;;3.03;;
9950;SDS011;24074;49.254;6.702;2023-11-22T01:17:55;2.80;;;2.57;;
9950;SDS011;24074;49.254;6.702;2023-11-22T01:20:21;3.73;;;3.20;;
9950;SDS011;24074;49.254;6.702;2023-11-22T01:22:48;3.30;;;3.00;;
9950;SDS011;24074;49.254;6.702;2023-11-22T01:25:14;3.67;;;3.23;;
9950;SDS011;24074;49.254;6.702;2023-11-22T01:27:39;2.93;;;2.63;;
9950;SDS011;24074;49.254;6.702;2023-11-22T01:30:05;4.23;;;3.30;;
9950;SDS011;24074;49.254;6.702;2023-11-22T01:32:34;4.87;;;3.10;;
9950;SDS011;24074;49.254;6.702;2023-11-22T01:35:00;4.03;;;3.13;;
9950;SDS011;24074;49.254;6.702;2023-11-22T01:37:26;3.33;;;3.03;;
9950;SDS011;24074;49.254;6.702;2023-11-22T01:39:52;3.57;;;2.77;;
9950;SDS011;24074;49.254;6.702;2023-11-22T01:42:19;3.20;;;2.67;;
9950;SDS011;24074;49.254;6.702;2023-11-22T01:44:45;3.73;;;3.03;;
9950;SDS011;24074;49.254;6.702;2023-11-22T01:47:12;3.33;;;3.03;;
9950;SDS011;24074;49.254;6.702;2023-11-22T01:49:39;3.30;;;3.00;;
9950;SDS011;24074;49.254;6.702;2023-11-22T01:52:05;2.97;;;2.63;;
9950;SDS011;24074;49.254;6.702;2023-11-22T01:54:31;3.83;;;3.00;;
9950;SDS011;24074;49.254;6.702;2023-11-22T01:56:57;2.63;;;2.43;;
9950;SDS011;24074;49.254;6.702;2023-11-22T01:59:25;3.40;;;2.73;;
9950;SDS011;24074;49.254;6.702;2023-11-22T02:01:56;2.90;;;2.60;;
9950;SDS011;24074;49.254;6.702;2023-11-22T02:04:22;3.87;;;3.03;;
9950;SDS011;24074;49.254;6.702;2023-11-22T02:06:47;3.30;;;2.90;;
9950;SDS011;24074;49.254;6.702;2023-11-22T02:09:13;5.23;;;2.87;;
9950;SDS011;24074;49.254;6.702;2023-11-22T02:11:41;4.03;;;3.20;;
9950;SDS011;24074;49.254;6.702;2023-11-22T02:14:14;3.67;;;2.90;;
9950;SDS011;24074;49.254;6.702;2023-11-22T02:16:40;4.27;;;2.70;;
9950;SDS011;24074;49.254;6.702;2023-11-22T02:19:06;4.00;;;2.80;;
9950;SDS011;24074;49.254;6.702;2023-11-22T02:21:38;3.03;;;2.73;;
9950;SDS011;24074;49.254;6.702;2023-11-22T02:24:04;3.87;;;2.80;;
9950;SDS011;24074;49.254;6.702;2023-11-22T02:26:30;2.90;;;2.60;;
9950;SDS011;24074;49.254;6.702;2023-11-22T02:28:56;2.83;;;2.50;;
9950;SDS011;24074;49.254;6.702;2023-11-22T02:31:21;4.10;;;2.70;;
9950;SDS011;24074;49.254;6.702;2023-11-22T02:33:49;2.80;;;2.47;;
9950;SDS011;24074;49.254;6.702;2023-11-22T02:36:14;3.37;;;2.77;;
9950;SDS011;24074;49.254;6.702;2023-11-22T02:38:40;3.37;;;3.00;;
9950;SDS011;24074;49.254;6.702;2023-11-22T02:41:06;3.13;;;2.80;;
9950;SDS011;24074;49.254;6.702;2023-11-22T02:43:34;3.70;;;2.90;;
9950;SDS011;24074;49.254;6.702;2023-11-22T02:46:00;2.73;;;2.50;;
9950;SDS011;24074;49.254;6.702;2023-11-22T02:48:26;3.57;;;2.97;;
9950;SDS011;24074;49.254;6.702;2023-11-22T02:50:51;3.10;;;2.80;;
9950;SDS011;24074;49.254;6.702;2023-11-22T02:53:19;3.97;;;2.90;;
9950;SDS011;24074;49.254;6.702;2023-11-22T02:55:44;3.37;;;2.97;;
9950;SDS011;24074;49.254;6.702;2023-11-22T02:58:10;3.17;;;2.73;;
9950;SDS011;24074;49.254;6.702;2023-11-22T03:00:37;4.43;;;2.87;;
9950;SDS011;24074;49.254;6.702;2023-11-22T03:03:05;4.33;;;3.27;;
9950;SDS011;24074;49.254;6.702;2023-11-22T03:05:35;4.33;;;2.70;;
9950;SDS011;24074;49.254;6.702;2023-11-22T03:08:04;2.83;;;2.60;;
9950;SDS011;24074;49.254;6.702;2023-11-22T03:10:32;3.73;;;3.10;;
9950;SDS011;24074;49.254;6.702;2023-11-22T03:12:58;4.60;;;3.50;;
9950;SDS011;24074;49.254;6.702;2023-11-22T03:15:23;2.77;;;2.50;;
9950;SDS011;24074;49.254;6.702;2023-11-22T03:17:49;2.93;;;2.50;;
9950;SDS011;24074;49.254;6.702;2023-11-22T03:20:14;3.73;;;2.90;;
9950;SDS011;24074;49.254;6.702;2023-11-22T03:22:41;3.10;;;2.50;;
9950;SDS011;24074;49.254;6.702;2023-11-22T03:25:09;3.90;;;2.53;;
9950;SDS011;24074;49.254;6.702;2023-11-22T03:27:36;4.07;;;2.60;;
9950;SDS011;24074;49.254;6.702;2023-11-22T03:30:02;2.83;;;2.50;;
9950;SDS011;24074;49.254;6.702;2023-11-22T03:32:28;2.70;;;2.50;;
9950;SDS011;24074;49.254;6.702;2023-11-22T03:34:54;3.10;;;2.80;;
9950;SDS011;24074;49.254;6.702;2023-11-22T03:37:20;4.10;;;2.50;;
9950;SDS011;24074;49.254;6.702;2023-11-22T03:39:46;3.77;;;2.70;;
9950;SDS011;24074;49.254;6.702;2023-11-22T03:42:14;3.37;;;3.00;;
9950;SDS011;24074;49.254;6.702;2023-11-22T03:44:41;3.90;;;2.67;;
9950;SDS011;24074;49.254;6.702;2023-11-22T03:47:07;3.00;;;2.70;;
9950;SDS011;24074;49.254;6.702;2023-11-22T03:49:33;4.73;;;3.10;;
9950;SDS011;24074;49.254;6.702;2023-11-22T03:51:58;5.43;;;3.17;;
9950;SDS011;24074;49.254;6.702;2023-11-22T03:54:24;4.50;;;2.90;;
9950;SDS011;24074;49.254;6.702;2023-11-22T03:56:49;4.33;;;3.30;;
9950;SDS011;24074;49.254;6.702;2023-11-22T03:59:15;4.73;;;3.33;;
9950;SDS011;24074;49.254;6.702;2023-11-22T04:01:41;4.50;;;3.20;;
9950;SDS011;24074;49.254;6.702;2023-11-22T04:04:06;4.70;;;3.47;;
9950;SDS011;24074;49.254;6.702;2023-11-22T04:06:34;4.83;;;3.33;;
9950;SDS011;24074;49.254;6.702;2023-11-22T04:09:00;4.20;;;3.33;;
9950;SDS011;24074;49.254;6.702;2023-11-22T04:11:26;3.73;;;3.13;;
9950;SDS011;24074;49.254;6.702;2023-11-22T04:13:54;5.83;;;3.20;;
9950;SDS011;24074;49.254;6.702;2023-11-22T04:16:20;4.73;;;3.07;;
9950;SDS011;24074;49.254;6.702;2023-11-22T04:18:45;4.93;;;3.40;;
9950;SDS011;24074;49.254;6.702;2023-11-22T04:21:11;5.53;;;3.13;;
9950;SDS011;24074;49.254;6.702;2023-11-22T04:23:36;4.77;;;3.33;;
9950;SDS011;24074;49.254;6.702;2023-11-22T04:26:02;5.63;;;3.37;;
9950;SDS011;24074;49.254;6.702;2023-11-22T04:28:28;4.13;;;3.30;;
9950;SDS011;24074;49.254;6.702;2023-11-22T04:30:54;5.47;;;3.73;;
9950;SDS011;24074;49.254;6.702;2023-11-22T04:33:20;5.47;;;2.83;;
9950;SDS011;24074;49.254;6.702;2023-11-22T04:35:47;6.17;;;3.03;;
9950;SDS011;24074;49.254;6.702;2023-11-22T04:38:13;3.30;;;3.00;;
9950;SDS011;24074;49.254;6.702;2023-11-22T04:40:39;5.17;;;3.00;;
9950;SDS011;24074;49.254;6.702;2023-11-22T04:43:04;5.50;;;3.00;;
9950;SDS011;24074;49.254;6.702;2023-11-22T04:45:30;6.30;;;3.03;;
9950;SDS011;24074;49.254;6.702;2023-11-22T04:47:55;3.87;;;3.33;;
9950;SDS011;24074;49.254;6.702;2023-11-22T04:50:22;3.10;;;2.80;;
9950;SDS011;24074;49.254;6.702;2023-11-22T04:52:49;3.33;;;2.70;;
9950;SDS011;24074;49.254;6.702;2023-11-22T04:55:15;4.43;;;2.90;;
9950;SDS011;24074;49.254;6.702;2023-11-22T04:57:40;4.77;;;3.10;;
9950;SDS011;24074;49.254;6.702;2023-11-22T05:00:06;3.23;;;2.83;;
9950;SDS011;24074;49.254;6.702;2023-11-22T05:02:32;3.50;;;2.77;;
9950;SDS011;24074;49.254;6.702;2023-11-22T05:04:58;3.87;;;3.03;;
9950;SDS011;24074;49.254;6.702;2023-11-22T05:07:23;4.33;;;3.00;;
9950;SDS011;24074;49.254;6.702;2023-11-22T05:09:49;6.37;;;2.90;;
9950;SDS011;24074;49.254;6.702;2023-11-22T05:12:15;5.80;;;3.17;;
9950;SDS011;24074;49.254;6.702;2023-11-22T05:14:40;5.27;;;2.57;;
9950;SDS011;24074;49.254;6.702;2023-11-22T05:17:08;3.57;;;2.50;;
9950;SDS011;24074;49.254;6.702;2023-11-22T05:19:34;3.33;;;2.93;;
9950;SDS011;24074;49.254;6.702;2023-11-22T05:21:59;3.73;;;2.67;;
9950;SDS011;24074;49.254;6.702;2023-11-22T05:24:25;4.43;;;3.63;;
9950;SDS011;24074;49.254;6.702;2023-11-22T05:26:51;4.13;;;2.73;;
9950;SDS011;24074;49.254;6.702;2023-11-22T05:29:16;3.67;;;3.00;;
9950;SDS011;24074;49.254;6.702;2023-11-22T05:31:42;7.40;;;3.00;;
9950;SDS011;24074;49.254;6.702;2023-11-22T05:34:07;3.83;;;2.77;;
9950;SDS011;24074;49.254;6.702;2023-11-22T05:36:33;4.40;;;3.17;;
9950;SDS011;24074;49.254;6.702;2023-11-22T05:38:59;4.00;;;3.67;;
9950;SDS011;24074;49.254;6.702;2023-11-22T05:41:25;5.13;;;3.13;;
9950;SDS011;24074;49.254;6.702;2023-11-22T05:43:51;4.30;;;3.10;;
9950;SDS011;24074;49.254;6.702;2023-11-22T05:46:17;4.77;;;2.90;;
9950;SDS011;24074;49.254;6.702;2023-11-22T05:48:56;4.30;;;3.07;;
9950;SDS011;24074;49.254;6.702;2023-11-22T05:51:21;5.47;;;3.67;;
9950;SDS011;24074;49.254;6.702;2023-11-22T05:53:47;6.33;;;3.03;;
9950;SDS011;24074;49.254;6.702;2023-11-22T05:56:12;4.37;;;3.50;;
9950;SDS011;24074;49.254;6.702;2023-11-22T05:58:39;3.97;;;3.47;;
9950;SDS011;24074;49.254;6.702;2023-11-22T06:01:05;3.80;;;3.40;;
9950;SDS011;24074;49.254;6.702;2023-11-22T06:03:31;6.67;;;3.80;;
9950;SDS011;24074;49.254;6.702;2023-11-22T06:05:58;6.63;;;3.40;;
9950;SDS011;24074;49.254;6.702;2023-11-22T06:08:24;5.20;;;3.47;;
9950;SDS011;24074;49.254;6.702;2023-11-22T06:10:49;7.07;;;3.60;;
9950;SDS011;24074;49.254;6.702;2023-11-22T06:13:16;7.07;;;3.43;;
9950;SDS011;24074;49.254;6.702;2023-11-22T06:15:42;4.37;;;3.60;;
9950;SDS011;24074;49.254;6.702;2023-11-22T06:18:08;4.57;;;3.30;;
9950;SDS011;24074;49.254;6.702;2023-11-22T06:20:33;7.30;;;3.70;;
9950;SDS011;24074;49.254;6.702;2023-11-22T06:22:59;4.90;;;3.30;;
9950;SDS011;24074;49.254;6.702;2023-11-22T06:25:24;4.17;;;3.30;;
9950;SDS011;24074;49.254;6.702;2023-11-22T06:27:50;3.97;;;3.10;;
9950;SDS011;24074;49.254;6.702;2023-11-22T06:30:15;3.67;;;2.97;;
9950;SDS011;24074;49.254;6.702;2023-11-22T06:32:41;4.30;;;3.43;;
9950;SDS011;24074;49.254;6.702;2023-11-22T06:35:10;4.03;;;3.23;;
9950;SDS011;24074;49.254;6.702;2023-11-22T06:37:39;3.37;;;3.00;;
9950;SDS011;24074;49.254;6.702;2023-11-22T06:40:05;4.07;;;3.13;;
9950;SDS011;24074;49.254;6.702;2023-11-22T06:42:32;4.20;;;3.27;;
9950;SDS011;24074;49.254;6.702;2023-11-22T06:44:58;3.30;;;2.97;;
9950;SDS011;24074;49.254;6.702;2023-11-22T06:47:25;4.80;;;3.30;;
9950;SDS011;24074;49.254;6.702;2023-11-22T06:49:54;5.20;;;3.13;;
9950;SDS011;24074;49.254;6.702;2023-11-22T06:52:19;4.37;;;3.27;;
9950;SDS011;24074;49.254;6.702;2023-11-22T06:54:45;3.97;;;3.30;;
9950;SDS011;24074;49.254;6.702;2023-11-22T06:57:11;4.40;;;3.50;;
9950;SDS011;24074;49.254;6.702;2023-11-22T06:59:37;5.23;;;3.30;;
9950;SDS011;24074;49.254;6.702;2023-11-22T07:02:03;4.17;;;3.20;;
9950;SDS011;24074;49.254;6.702;2023-11-22T07:04:28;6.90;;;3.20;;
9950;SDS011;24074;49.254;6.702;2023-11-22T07:06:54;4.17;;;3.33;;
9950;SDS011;24074;49.254;6.702;2023-11-22T07:09:19;4.47;;;3.20;;
9950;SDS011;24074;49.254;6.702;2023-11-22T07:11:45;4.30;;;3.67;;
9950;SDS011;24074;49.254;6.702;2023-11-22T07:14:14;4.60;;;3.50;;
9950;SDS011;24074;49.254;6.702;2023-11-22T07:16:41;4.00;;;3.27;;
9950;SDS011;24074;49.254;6.702;2023-11-22T07:19:07;4.63;;;3.03;;
9950;SDS011;24074;49.254;6.702;2023-11-22T07:21:32;5.67;;;3.43;;
9950;SDS011;24074;49.254;6.702;2023-11-22T07:23:59;3.90;;;3.00;;
9950;SDS011;24074;49.254;6.702;2023-11-22T07:26:24;4.70;;;3.13;;
9950;SDS011;24074;49.254;6.702;2023-11-22T07:28:53;4.77;;;3.70;;
9950;SDS011;24074;49.254;6.702;2023-11-22T07:31:19;4.17;;;3.13;;
9950;SDS011;24074;49.254;6.702;2023-11-22T07:33:46;3.80;;;3.17;;
9950;SDS011;24074;49.254;6.702;2023-11-22T07:36:11;3.83;;;3.03;;
9950;SDS011;24074;49.254;6.702;2023-11-22T07:38:40;4.20;;;3.13;;
9950;SDS011;24074;49.254;6.702;2023-11-22T07:41:06;3.77;;;3.37;;
9950;SDS011;24074;49.254;6.702;2023-11-22T07:43:32;5.30;;;3.03;;
9950;SDS011;24074;49.254;6.702;2023-11-22T07:45:57;4.33;;;3.40;;
9950;SDS011;24074;49.254;6.702;2023-11-22T07:48:24;3.43;;;3.13;;
9950;SDS011;24074;49.254;6.702;2023-11-22T07:50:50;3.60;;;3.03;;
9950;SDS011;24074;49.254;6.702;2023-11-22T07:53:17;3.70;;;2.47;;
9950;SDS011;24074;49.254;6.702;2023-11-22T07:55:42;3.63;;;3.03;;
9950;SDS011;24074;49.254;6.702;2023-11-22T07:58:08;3.90;;;3.50;;
9950;SDS011;24074;49.254;6.702;2023-11-22T08:00:35;3.77;;;3.37;;
9950;SDS011;24074;49.254;6.702;2023-11-22T08:03:02;4.33;;;3.10;;
9950;SDS011;24074;49.254;6.702;2023-11-22T08:05:30;3.00;;;2.70;;
9950;SDS011;24074;49.254;6.702;2023-11-22T08:08:05;2.50;;;2.30;;
9950;SDS011;24074;49.254;6.702;2023-11-22T08:10:34;2.50;;;2.30;;
9950;SDS011;24074;49.254;6.702;2023-11-22T08:13:00;2.50;;;2.30;;
9950;SDS011;24074;49.254;6.702;2023-11-22T08:15:25;5.07;;;2.47;;
9950;SDS011;24074;49.254;6.702;2023-11-22T08:17:51;2.77;;;2.10;;
9950;SDS011;24074;49.254;6.702;2023-11-22T08:20:16;2.30;;;2.10;;
9950;SDS011;24074;49.254;6.702;2023-11-22T08:22:43;2.73;;;2.30;;
9950;SDS011;24074;49.254;6.702;2023-11-22T08:25:10;3.10;;;2.10;;
9950;SDS011;24074;49.254;6.702;2023-11-22T08:27:37;2.77;;;2.10;;
9950;SDS011;24074;49.254;6.702;2023-11-22T08:30:05;3.33;;;2.30;;
9950;SDS011;24074;49.254;6.702;2023-11-22T08:32:34;3.00;;;2.17;;
9950;SDS011;24074;49.254;6.702;2023-11-22T08:35:00;2.47;;;1.97;;
9950;SDS011;24074;49.254;6.702;2023-11-22T08:37:26;2.63;;;2.10;;
9950;SDS011;24074;49.254;6.702;2023-11-22T08:39:51;4.50;;;2.33;;
9950;SDS011;24074;49.254;6.702;2023-11-22T08:42:17;3.57;;;2.20;;
9950;SDS011;24074;49.254;6.702;2023-11-22T08:44:43;3.30;;;2.60;;
9950;SDS011;24074;49.254;6.702;2023-11-22T08:47:08;3.47;;;2.40;;
9950;SDS011;24074;49.254;6.702;2023-11-22T08:49:34;3.00;;;2.30;;
9950;SDS011;24074;49.254;6.702;2023-11-22T08:52:00;3.60;;;2.20;;
9950;SDS011;24074;49.254;6.702;2023-11-22T08:54:27;2.13;;;1.83;;
9950;SDS011;24074;49.254;6.702;2023-11-22T08:56:54;2.53;;;2.00;;
9950;SDS011;24074;49.254;6.702;2023-11-22T08:59:21;2.73;;;1.60;;
9950;SDS011;24074;49.254;6.702;2023-11-22T09:01:47;2.10;;;1.80;;
9950;SDS011;24074;49.254;6.702;2023-11-22T09:04:12;1.70;;;1.50;;
9950;SDS011;24074;49.254;6.702;2023-11-22T09:06:38;2.37;;;1.40;;
9950;SDS011;24074;49.254;6.702;2023-11-22T09:09:04;2.17;;;1.63;;
9950;SDS011;24074;49.254;6.702;2023-11-22T09:11:30;2.13;;;1.70;;
9950;SDS011;24074;49.254;6.702;2023-11-22T09:13:56;1.47;;;1.37;;
9950;SDS011;24074;49.254;6.702;2023-11-22T09:16:22;1.73;;;1.30;;
9950;SDS011;24074;49.254;6.702;2023-11-22T09:18:50;2.03;;;1.60;;
9950;SDS011;24074;49.254;6.702;2023-11-22T09:21:16;1.80;;;1.50;;
9950;SDS011;24074;49.254;6.702;2023-11-22T09:23:45;1.73;;;1.63;;
9950;SDS011;24074;49.254;6.702;2023-11-22T09:26:12;2.40;;;1.63;;
9950;SDS011;24074;49.254;6.702;2023-11-22T09:28:39;2.27;;;1.77;;
9950;SDS011;24074;49.254;6.702;2023-11-22T09:31:08;2.67;;;1.40;;
9950;SDS011;24074;49.254;6.702;2023-11-22T09:33:33;2.53;;;1.53;;
9950;SDS011;24074;49.254;6.702;2023-11-22T09:35:59;2.00;;;1.50;;
9950;SDS011;24074;49.254;6.702;2023-11-22T09:38:25;2.83;;;1.80;;
9950;SDS011;24074;49.254;6.702;2023-11-22T09:40:50;2.43;;;1.40;;
9950;SDS011;24074;49.254;6.702;2023-11-22T09:43:16;1.33;;;1.23;;
9950;SDS011;24074;49.254;6.702;2023-11-22T09:45:43;4.50;;;1.20;;
9950;SDS011;24074;49.254;6.702;2023-11-22T09:48:16;2.17;;;1.40;;
9950;SDS011;24074;49.254;6.702;2023-11-22T09:56:11;1.20;;;1.10;;
9950;SDS011;24074;49.254;6.702;2023-11-22T09:58:40;1.73;;;1.10;;
9950;SDS011;24074;49.254;6.702;2023-11-22T10:01:12;1.20;;;1.00;;
9950;SDS011;24074;49.254;6.702;2023-11-22T10:03:38;1.20;;;1.10;;
9950;SDS011;24074;49.254;6.702;2023-11-22T10:06:04;1.43;;;1.10;;
9950;SDS011;24074;49.254;6.702;2023-11-22T10:08:31;1.10;;;1.00;;
9950;SDS011;24074;49.254;6.702;2023-11-22T10:10:57;1.03;;;1.00;;
9950;SDS011;24074;49.254;6.702;2023-11-22T10:13:24;1.30;;;1.10;;
9950;SDS011;24074;49.254;6.702;2023-11-22T10:15:50;1.10;;;1.00;;
9950;SDS011;24074;49.254;6.702;2023-11-22T10:18:17;1.30;;;1.00;;
9950;SDS011;24074;49.254;6.702;2023-11-22T10:20:44;1.20;;;1.07;;
9950;SDS011;24074;49.254;6.702;2023-11-22T10:23:14;1.93;;;1.10;;
9950;SDS011;24074;49.254;6.702;2023-11-22T10:25:44;1.10;;;1.00;;
9950;SDS011;24074;49.254;6.702;2023-11-22T10:28:17;2.33;;;1.00;;
9950;SDS011;24074;49.254;6.702;2023-11-22T10:30:46;1.10;;;1.00;;
9950;SDS011;24074;49.254;6.702;2023-11-22T10:33:13;1.90;;;1.23;;
9950;SDS011;24074;49.254;6.702;2023-11-22T10:35:43;1.47;;;1.10;;
9950;SDS011;24074;49.254;6.702;2023-11-22T10:38:10;1.27;;;1.17;;
9950;SDS011;24074;49.254;6.702;2023-11-22T10:40:38;1.30;;;1.20;;
9950;SDS011;24074;49.254;6.702;2023-11-22T10:43:04;1.53;;;1.10;;
9950;SDS011;24074;49.254;6.702;2023-11-22T10:45:32;2.37;;;1.27;;
9950;SDS011;24074;49.254;6.702;2023-11-22T10:48:00;2.30;;;1.10;;
9950;SDS011;24074;49.254;6.702;2023-11-22T10:50:26;1.93;;;1.50;;
9950;SDS011;24074;49.254;6.702;2023-11-22T10:52:53;2.17;;;1.37;;
9950;SDS011;24074;49.254;6.702;2023-11-22T10:55:31;2.33;;;1.30;;
9950;SDS011;24074;49.254;6.702;2023-11-22T10:58:01;1.10;;;1.00;;
9950;SDS011;24074;49.254;6.702;2023-11-22T11:00:27;2.67;;;1.77;;
9950;SDS011;24074;49.254;6.702;2023-11-22T11:02:59;2.03;;;1.53;;
9950;SDS011;24074;49.254;6.702;2023-11-22T11:05:30;1.80;;;1.57;;
9950;SDS011;24074;49.254;6.702;2023-11-22T11:08:07;3.10;;;2.10;;
9950;SDS011;24074;49.254;6.702;2023-11-22T11:10:42;3.47;;;1.67;;
9950;SDS011;24074;49.254;6.702;2023-11-22T11:13:12;2.47;;;1.30;;
9950;SDS011;24074;49.254;6.702;2023-11-22T11:15:38;1.77;;;1.30;;
9950;SDS011;24074;49.254;6.702;2023-11-22T11:18:09;1.30;;;1.13;;
9950;SDS011;24074;49.254;6.702;2023-11-22T11:20:50;1.90;;;1.43;;
9950;SDS011;24074;49.254;6.702;2023-11-22T11:23:19;1.57;;;1.00;;
9950;SDS011;24074;49.254;6.702;2023-11-22T11:25:58;2.47;;;2.00;;
9950;SDS011;24074;49.254;6.702;2023-11-22T11:28:41;1.47;;;1.37;;
9950;SDS011;24074;49.254;6.702;2023-11-22T11:31:12;1.87;;;1.40;;
9950;SDS011;24074;49.254;6.702;2023-11-22T11:38:54;1.10;;;1.00;;
9950;SDS011;24074;49.254;6.702;2023-11-22T11:41:27;2.00;;;1.40;;
9950;SDS011;24074;49.254;6.702;2023-11-22T11:43:55;1.43;;;1.20;;
9950;SDS011;24074;49.254;6.702;2023-11-22T11:46:22;1.10;;;1.00;;
9950;SDS011;24074;49.254;6.702;2023-11-22T11:48:48;1.57;;;1.00;;
9950;SDS011;24074;49.254;6.702;2023-11-22T11:51:19;0.83;;;0.70;;
9950;SDS011;24074;49.254;6.702;2023-11-22T11:53:46;1.10;;;0.87;;
9950;SDS011;24074;49.254;6.702;2023-11-22T11:56:11;0.90;;;0.90;;
9950;SDS011;24074;49.254;6.702;2023-11-22T11:58:37;1.10;;;1.00;;
9950;SDS011;24074;49.254;6.702;2023-11-22T12:01:06;1.10;;;0.87;;
9950;SDS011;24074;49.254;6.702;2023-11-22T12:03:35;0.70;;;0.70;;
9950;SDS011;24074;49.254;6.702;2023-11-22T12:06:01;2.57;;;1.00;;
9950;SDS011;24074;49.254;6.702;2023-11-22T12:08:26;1.57;;;0.80;;
9950;SDS011;24074;49.254;6.702;2023-11-22T12:10:55;1.60;;;0.90;;
9950;SDS011;24074;49.254;6.702;2023-11-22T12:13:23;0.80;;;0.80;;
9950;SDS011;24074;49.254;6.702;2023-11-22T12:15:51;0.97;;;0.80;;
9950;SDS011;24074;49.254;6.702;2023-11-22T12:18:18;2.57;;;0.80;;
9950;SDS011;24074;49.254;6.702;2023-11-22T12:20:54;1.17;;;0.87;;
9950;SDS011;24074;49.254;6.702;2023-11-22T12:23:24;1.27;;;0.90;;
9950;SDS011;24074;49.254;6.702;2023-11-22T12:26:02;1.33;;;0.70;;
9950;SDS011;24074;49.254;6.702;2023-11-22T12:28:28;1.00;;;0.90;;
9950;SDS011;24074;49.254;6.702;2023-11-22T12:30:54;1.13;;;0.90;;
9950;SDS011;24074;49.254;6.702;2023-11-22T12:33:20;0.70;;;0.70;;
9950;SDS011;24074;49.254;6.702;2023-11-22T12:35:46;2.10;;;1.00;;
9950;SDS011;24074;49.254;6.702;2023-11-22T12:38:13;2.30;;;0.97;;
9950;SDS011;24074;49.254;6.702;2023-11-22T12:40:45;0.90;;;0.83;;
9950;SDS011;24074;49.254;6.702;2023-11-22T12:43:12;1.87;;;1.10;;
9950;SDS011;24074;49.254;6.702;2023-11-22T12:45:39;1.93;;;1.17;;
9950;SDS011;24074;49.254;6.702;2023-11-22T12:48:24;1.93;;;1.13;;
9950;SDS011;24074;49.254;6.702;2023-11-22T12:50:51;0.93;;;0.80;;
9950;SDS011;24074;49.254;6.702;2023-11-22T12:53:17;1.07;;;0.80;;
9950;SDS011;24074;49.254;6.702;2023-11-22T12:55:46;1.67;;;1.00;;
9950;SDS011;24074;49.254;6.702;2023-11-22T12:58:14;1.10;;;1.00;;
9950;SDS011;24074;49.254;6.702;2023-11-22T13:00:41;1.07;;;0.97;;
9950;SDS011;24074;49.254;6.702;2023-11-22T13:03:07;1.40;;;1.03;;
9950;SDS011;24074;49.254;6.702;2023-11-22T13:05:35;1.20;;;1.10;;
9950;SDS011;24074;49.254;6.702;2023-11-22T13:08:07;1.17;;;0.90;;
9950;SDS011;24074;49.254;6.702;2023-11-22T13:10:35;3.00;;;1.10;;
9950;SDS011;24074;49.254;6.702;2023-11-22T13:13:01;1.77;;;1.10;;
9950;SDS011;24074;49.254;6.702;2023-11-22T13:15:27;2.70;;;1.30;;
9950;SDS011;24074;49.254;6.702;2023-11-22T13:17:53;2.47;;;1.47;;
9950;SDS011;24074;49.254;6.702;2023-11-22T13:20:23;2.83;;;1.50;;
9950;SDS011;24074;49.254;6.702;2023-11-22T13:22:50;1.33;;;1.20;;
9950;SDS011;24074;49.254;6.702;2023-11-22T13:25:16;2.27;;;1.80;;
9950;SDS011;24074;49.254;6.702;2023-11-22T13:27:44;1.50;;;1.30;;
9950;SDS011;24074;49.254;6.702;2023-11-22T13:30:11;3.57;;;1.80;;
9950;SDS011;24074;49.254;6.702;2023-11-22T13:32:37;1.67;;;1.37;;
9950;SDS011;24074;49.254;6.702;2023-11-22T13:35:04;1.50;;;1.10;;
9950;SDS011;24074;49.254;6.702;2023-11-22T13:37:37;1.00;;;0.90;;
9950;SDS011;24074;49.254;6.702;2023-11-22T13:40:06;1.10;;;1.00;;
9950;SDS011;24074;49.254;6.702;2023-11-22T13:42:37;2.23;;;1.10;;
9950;SDS011;24074;49.254;6.702;2023-11-22T13:45:02;1.03;;;0.90;;
9950;SDS011;24074;49.254;6.702;2023-11-22T13:47:28;1.30;;;1.00;;
9950;SDS011;24074;49.254;6.702;2023-11-22T13:49:54;1.20;;;1.10;;
9950;SDS011;24074;49.254;6.702;2023-11-22T13:52:19;1.10;;;1.00;;
9950;SDS011;24074;49.254;6.702;2023-11-22T13:54:45;2.30;;;1.20;;
9950;SDS011;24074;49.254;6.702;2023-11-22T13:57:11;3.10;;;1.13;;
9950;SDS011;24074;49.254;6.702;2023-11-22T13:59:36;1.70;;;1.27;;
9950;SDS011;24074;49.254;6.702;2023-11-22T14:02:02;1.30;;;1.20;;
9950;SDS011;24074;49.254;6.702;2023-11-22T14:04:27;2.30;;;1.20;;
9950;SDS011;24074;49.254;6.702;2023-11-22T14:06:53;1.40;;;1.20;;
9950;SDS011;24074;49.254;6.702;2023-11-22T14:09:18;1.30;;;1.20;;
9950;SDS011;24074;49.254;6.702;2023-11-22T14:11:44;1.30;;;1.20;;
9950;SDS011;24074;49.254;6.702;2023-11-22T14:14:10;1.23;;;1.00;;
9950;SDS011;24074;49.254;6.702;2023-11-22T14:16:36;1.40;;;1.13;;
9950;SDS011;24074;49.254;6.702;2023-11-22T14:19:03;1.63;;;1.10;;
9950;SDS011;24074;49.254;6.702;2023-11-22T14:21:30;1.57;;;1.10;;
9950;SDS011;24074;49.254;6.702;2023-11-22T14:23:57;1.87;;;1.00;;
9950;SDS011;24074;49.254;6.702;2023-11-22T14:26:23;1.20;;;1.00;;
9950;SDS011;24074;49.254;6.702;2023-11-22T14:28:48;2.07;;;1.20;;
9950;SDS011;24074;49.254;6.702;2023-11-22T14:31:14;1.37;;;1.07;;
9950;SDS011;24074;49.254;6.702;2023-11-22T14:33:41;4.03;;;1.20;;
9950;SDS011;24074;49.254;6.702;2023-11-22T14:36:06;2.00;;;1.40;;
9950;SDS011;24074;49.254;6.702;2023-11-22T14:38:32;1.57;;;1.40;;
9950;SDS011;24074;49.254;6.702;2023-11-22T14:40:58;1.53;;;1.33;;
9950;SDS011;24074;49.254;6.702;2023-11-22T14:43:23;1.40;;;1.20;;
9950;SDS011;24074;49.254;6.702;2023-11-22T14:45:49;2.27;;;1.60;;
9950;SDS011;24074;49.254;6.702;2023-11-22T14:48:15;1.73;;;1.23;;
9950;SDS011;24074;49.254;6.702;2023-11-22T14:50:40;1.27;;;1.13;;
9950;SDS011;24074;49.254;6.702;2023-11-22T14:53:06;2.77;;;1.50;;
9950;SDS011;24074;49.254;6.702;2023-11-22T14:55:38;1.63;;;1.53;;
9950;SDS011;24074;49.254;6.702;2023-11-22T14:58:06;1.93;;;1.13;;
9950;SDS011;24074;49.254;6.702;2023-11-22T15:00:31;1.80;;;1.40;;
9950;SDS011;24074;49.254;6.702;2023-11-22T15:02:57;2.80;;;1.43;;
9950;SDS011;24074;49.254;6.702;2023-11-22T15:05:23;1.20;;;1.10;;
9950;SDS011;24074;49.254;6.702;2023-11-22T15:07:49;1.20;;;1.10;;